Time;durP1;ratioP1;P1;durP2;ratioP2;P2;SDS_P1;SDS_P2;PMS_P1;PMS_P2;Temp;Humidity;BMP_temperature;BMP_pressure;BME280_temperature;BME280_humidity;BME280_pressure;Samples;Min_cycle;Max_cycle;Signal;HPM_P1;HPM_P2
2022/04/21 00:00:23;;;;;;;0.50;0.30;;;8.20;70.60;;;;;;5034245;28;20454;-83
2022/04/21 00:02:51;;;;;;;0.40;0.40;;;8.10;70.40;;;;;;5033685;28;20508;-83
2022/04/21 00:05:18;;;;;;;0.90;0.90;;;8.00;71.20;;;;;;5033776;28;20462;-83
2022/04/21 00:07:48;;;;;;;1.30;0.90;;;8.00;71.40;;;;;;5033552;28;20489;-84
2022/04/21 00:10:15;;;;;;;1.03;0.77;;;7.90;72.10;;;;;;5033777;28;20853;-84
2022/04/21 00:12:42;;;;;;;0.40;0.40;;;7.80;72.60;;;;;;5033377;28;21012;-83
2022/04/21 00:15:10;;;;;;;0.37;0.37;;;7.80;73.30;;;;;;5032850;28;20968;-83
2022/04/21 00:17:36;;;;;;;1.03;0.30;;;7.70;73.60;;;;;;5033665;28;20453;-84
2022/04/21 00:20:06;;;;;;;0.70;0.70;;;7.70;73.90;;;;;;5033596;28;20453;-85
2022/04/21 00:25:17;;;;;;;0.60;0.60;;;7.60;74.60;;;;;;5033684;28;20402;-84
2022/04/21 00:27:45;;;;;;;0.60;0.60;;;7.60;75.10;;;;;;5033693;28;20458;-84
2022/04/21 00:30:13;;;;;;;0.30;0.30;;;7.60;75.60;;;;;;5033330;28;20459;-84
2022/04/21 00:32:42;;;;;;;0.40;0.30;;;7.60;76.00;;;;;;5033572;28;20491;-83
2022/04/21 00:35:12;;;;;;;0.40;0.40;;;7.60;77.10;;;;;;5033470;28;20459;-83
2022/04/21 00:37:50;;;;;;;1.70;0.43;;;7.60;77.90;;;;;;5033796;28;20446;-84
2022/04/21 00:40:19;;;;;;;0.40;0.40;;;7.50;78.50;;;;;;5033489;28;20438;-84
2022/04/21 00:42:46;;;;;;;0.57;0.57;;;7.50;78.70;;;;;;5032904;28;21065;-83
2022/04/21 00:45:13;;;;;;;0.70;0.70;;;7.50;79.40;;;;;;5033484;28;20462;-83
2022/04/21 00:47:43;;;;;;;1.47;0.50;;;7.50;80.00;;;;;;5033347;28;20431;-84
2022/04/21 00:50:15;;;;;;;0.60;0.30;;;7.40;79.90;;;;;;5033250;28;20458;-84
2022/04/21 00:52:42;;;;;;;0.30;0.30;;;7.30;80.60;;;;;;5033400;28;20471;-84
2022/04/21 00:55:10;;;;;;;0.73;0.47;;;7.30;81.00;;;;;;5033244;28;20455;-83
2022/04/21 00:57:38;;;;;;;0.40;0.40;;;7.30;82.40;;;;;;5033115;28;20454;-84
2022/04/21 01:00:07;;;;;;;0.50;0.47;;;7.20;82.70;;;;;;5033122;28;20451;-83
2022/04/21 01:02:53;;;;;;;0.67;0.67;;;7.20;83.10;;;;;;5032930;28;20477;-84
2022/04/21 01:05:33;;;;;;;0.40;0.30;;;7.20;84.00;;;;;;5032839;28;20809;-83
2022/04/21 01:08:01;;;;;;;0.50;0.50;;;7.10;84.90;;;;;;5032739;28;20892;-84
2022/04/21 01:10:29;;;;;;;0.50;0.50;;;7.10;85.50;;;;;;5033072;28;20529;-84
2022/04/21 01:12:56;;;;;;;0.30;0.30;;;7.10;86.60;;;;;;5032595;28;20473;-84
2022/04/21 01:15:23;;;;;;;0.70;0.70;;;7.00;87.10;;;;;;5032957;28;20450;-84
2022/04/21 01:17:53;;;;;;;0.50;0.50;;;6.90;87.80;;;;;;5032697;28;20439;-84
2022/04/21 01:20:22;;;;;;;0.43;0.33;;;6.80;88.90;;;;;;5032669;28;20432;-83
2022/04/21 01:22:50;;;;;;;1.60;0.63;;;6.70;89.90;;;;;;5032713;28;20497;-84
2022/04/21 01:25:17;;;;;;;0.30;0.30;;;6.70;90.30;;;;;;5034504;28;20438;-83
2022/04/21 01:27:46;;;;;;;0.40;0.40;;;6.60;90.30;;;;;;5036798;28;20462;-85
2022/04/21 01:30:13;;;;;;;3.37;2.40;;;6.60;90.40;;;;;;5036567;28;20458;-83
2022/04/21 01:32:42;;;;;;;0.40;0.40;;;6.60;91.10;;;;;;5036329;28;20460;-82
2022/04/21 01:35:10;;;;;;;0.40;0.30;;;6.50;91.80;;;;;;5036743;28;20469;-84
2022/04/21 01:43:09;;;;;;;1.00;0.90;;;6.40;94.00;;;;;;5036586;28;20454;-83
2022/04/21 01:45:36;;;;;;;0.40;0.30;;;6.40;94.80;;;;;;5036464;28;20438;-83
2022/04/21 01:48:04;;;;;;;0.50;0.50;;;6.30;95.50;;;;;;5018580;28;20954;-82
2022/04/21 01:50:31;;;;;;;0.93;0.43;;;6.30;96.20;;;;;;5036407;28;20451;-84
2022/04/21 01:53:00;;;;;;;0.40;0.40;;;6.30;96.50;;;;;;5036242;28;20467;-83
2022/04/21 01:55:27;;;;;;;0.67;0.67;;;6.40;96.90;;;;;;5036295;28;20443;-82
2022/04/21 01:57:54;;;;;;;0.30;0.30;;;6.30;97.30;;;;;;5035987;28;20822;-83
2022/04/21 02:00:20;;;;;;;0.40;0.30;;;6.20;97.90;;;;;;5036103;28;20925;-82
2022/04/21 02:02:47;;;;;;;0.30;0.30;;;6.20;98.50;;;;;;5035762;28;20451;-83
2022/04/21 02:05:14;;;;;;;0.97;0.50;;;6.20;98.50;;;;;;5036095;28;20454;-85
2022/04/21 02:07:43;;;;;;;0.60;0.60;;;6.20;99.20;;;;;;5035571;28;20993;-83
2022/04/21 02:10:12;;;;;;;0.87;0.60;;;6.10;99.30;;;;;;5036024;28;20538;-84
2022/04/21 02:12:38;;;;;;;0.30;0.30;;;6.10;99.60;;;;;;5035694;28;20455;-84
2022/04/21 02:15:06;;;;;;;0.97;0.67;;;6.00;99.90;;;;;;5035890;28;20447;-85
2022/04/21 02:17:33;;;;;;;0.40;0.40;;;6.00;99.90;;;;;;5035941;28;20514;-84
2022/04/21 02:20:00;;;;;;;0.40;0.30;;;5.90;99.90;;;;;;5035829;28;20474;-84
2022/04/21 02:22:27;;;;;;;0.37;0.37;;;5.90;99.90;;;;;;5035379;28;20986;-83
2022/04/21 02:24:54;;;;;;;0.40;0.40;;;6.00;99.90;;;;;;5035363;28;20486;-85
2022/04/21 02:27:22;;;;;;;0.53;0.47;;;5.90;99.90;;;;;;5035655;28;20454;-86
2022/04/21 02:29:49;;;;;;;0.40;0.37;;;5.90;99.90;;;;;;5035663;28;20462;-84
2022/04/21 02:32:16;;;;;;;0.37;0.33;;;5.90;99.90;;;;;;5035237;28;21004;-84
2022/04/21 02:34:43;;;;;;;1.07;0.73;;;5.90;99.90;;;;;;5035540;28;20497;-85
2022/04/21 02:37:09;;;;;;;0.90;0.33;;;6.00;99.90;;;;;;5034493;28;20474;-85
2022/04/21 02:39:36;;;;;;;0.50;0.50;;;5.90;99.90;;;;;;5035700;28;20462;-85
2022/04/21 02:42:04;;;;;;;0.40;0.30;;;5.90;99.90;;;;;;5035733;28;20474;-84
2022/04/21 02:44:33;;;;;;;0.30;0.30;;;5.90;99.90;;;;;;5035308;28;20569;-86
2022/04/21 02:47:00;;;;;;;0.40;0.40;;;5.90;99.90;;;;;;5035109;28;20972;-85
2022/04/21 02:49:27;;;;;;;0.30;0.30;;;6.00;99.90;;;;;;5035283;28;20450;-86
2022/04/21 02:51:55;;;;;;;0.60;0.60;;;6.00;99.90;;;;;;5035551;28;20474;-85
2022/04/21 02:57:24;;;;;;;0.37;0.37;;;6.00;99.90;;;;;;5035258;28;20410;-85
2022/04/21 02:59:54;;;;;;;0.30;0.30;;;5.90;99.90;;;;;;5035089;28;20970;-85
2022/04/21 03:02:21;;;;;;;2.30;0.97;;;5.90;99.90;;;;;;5035003;28;20476;-84
2022/04/21 03:04:49;;;;;;;0.80;0.40;;;5.80;99.90;;;;;;5035005;28;20486;-85
2022/04/21 03:07:17;;;;;;;0.50;0.37;;;5.80;99.90;;;;;;5034428;28;20862;-84
2022/04/21 03:09:44;;;;;;;0.60;0.60;;;5.80;99.90;;;;;;5034790;28;20478;-85
2022/04/21 03:12:12;;;;;;;0.43;0.43;;;5.80;99.90;;;;;;5034787;28;20502;-83
2022/04/21 03:14:40;;;;;;;3.03;0.70;;;5.80;99.90;;;;;;5034679;28;20479;-84
2022/04/21 03:17:09;;;;;;;0.60;0.50;;;5.80;99.90;;;;;;5034757;28;20450;-81
2022/04/21 03:19:37;;;;;;;2.20;0.60;;;5.70;99.90;;;;;;5034737;28;20447;-84
2022/04/21 03:24:49;;;;;;;0.30;0.30;;;5.60;99.90;;;;;;5034679;28;20521;-83
2022/04/21 03:27:16;;;;;;;0.40;0.30;;;5.60;99.90;;;;;;5034839;28;20447;-85
2022/04/21 03:29:43;;;;;;;0.40;0.30;;;5.60;99.90;;;;;;5034384;28;20435;-85
2022/04/21 03:32:13;;;;;;;0.40;0.30;;;5.60;99.90;;;;;;5034608;28;20533;-84
2022/04/21 03:34:41;;;;;;;0.60;0.60;;;5.50;99.90;;;;;;5034856;28;20447;-84
2022/04/21 03:37:09;;;;;;;0.50;0.40;;;5.50;99.90;;;;;;5034430;28;20481;-84
2022/04/21 03:39:36;;;;;;;0.40;0.33;;;5.50;99.90;;;;;;5034340;28;20458;-83
2022/04/21 03:42:04;;;;;;;0.30;0.20;;;5.40;99.90;;;;;;5033886;28;20474;-86
2022/04/21 03:44:31;;;;;;;0.30;0.30;;;5.40;99.90;;;;;;5034140;28;20482;-84
2022/04/21 03:46:58;;;;;;;0.30;0.30;;;5.30;99.90;;;;;;5034181;28;20455;-84
2022/04/21 03:49:27;;;;;;;0.60;0.60;;;5.30;99.90;;;;;;5034031;28;20451;-85
2022/04/21 03:51:54;;;;;;;0.33;0.30;;;5.30;99.90;;;;;;5034009;28;20467;-83
2022/04/21 03:54:22;;;;;;;0.50;0.40;;;5.30;99.90;;;;;;5033958;28;20946;-85
2022/04/21 03:56:49;;;;;;;0.60;0.60;;;5.30;99.90;;;;;;5033707;28;20942;-84
2022/04/21 03:59:16;;;;;;;0.40;0.40;;;5.30;99.90;;;;;;5033845;28;20554;-84
2022/04/21 04:01:42;;;;;;;0.30;0.30;;;5.30;99.90;;;;;;5033586;28;20454;-85
2022/04/21 04:04:09;;;;;;;0.40;0.40;;;5.30;99.90;;;;;;5033648;28;20490;-85
2022/04/21 04:12:07;;;;;;;0.93;0.70;;;5.30;99.90;;;;;;5033703;28;20454;-85
2022/04/21 04:14:34;;;;;;;0.77;0.77;;;5.40;99.90;;;;;;5033701;28;20446;-84
2022/04/21 04:17:01;;;;;;;2.20;2.00;;;5.40;99.90;;;;;;5033850;28;20446;-82
2022/04/21 04:19:28;;;;;;;0.40;0.37;;;5.40;99.90;;;;;;5033748;28;20453;-85
2022/04/21 04:21:56;;;;;;;0.87;0.77;;;5.50;99.90;;;;;;5033302;28;20454;-84
2022/04/21 04:24:22;;;;;;;0.40;0.40;;;5.50;99.90;;;;;;5033168;28;20478;-86
2022/04/21 04:26:49;;;;;;;0.93;0.50;;;5.50;99.90;;;;;;5033468;28;20784;-85
2022/04/21 04:29:22;;;;;;;1.13;1.03;;;5.60;99.90;;;;;;5034115;28;20517;-84
2022/04/21 04:31:49;;;;;;;0.33;0.30;;;5.60;99.90;;;;;;5033736;28;20479;-84
2022/04/21 04:34:16;;;;;;;0.50;0.50;;;5.50;99.90;;;;;;5033397;28;20443;-85
2022/04/21 04:36:43;;;;;;;0.60;0.60;;;5.50;99.90;;;;;;5033116;28;20559;-85
2022/04/21 04:39:12;;;;;;;0.97;0.97;;;5.50;99.90;;;;;;5033521;28;20458;-85
2022/04/21 04:44:23;;;;;;;0.43;0.43;;;5.40;99.90;;;;;;5033288;28;20554;-86
2022/04/21 04:46:48;;;;;;;0.30;0.30;;;5.40;99.90;;;;;;5033216;28;20454;-84
2022/04/21 04:49:15;;;;;;;0.50;0.40;;;5.40;99.90;;;;;;5033254;28;20837;-84
2022/04/21 04:51:43;;;;;;;0.87;0.83;;;5.30;99.90;;;;;;5032824;28;20738;-82
2022/04/21 04:54:16;;;;;;;0.90;0.40;;;5.30;99.90;;;;;;5033145;28;20487;-84
2022/04/21 04:56:43;;;;;;;0.30;0.30;;;5.30;99.90;;;;;;5033435;28;20451;-85
2022/04/21 04:59:10;;;;;;;0.30;0.30;;;5.20;99.90;;;;;;5032376;28;20462;-84
2022/04/21 05:01:41;;;;;;;0.97;0.73;;;5.30;99.90;;;;;;5032503;28;20524;-84
2022/04/21 05:04:09;;;;;;;0.30;0.30;;;5.30;99.90;;;;;;5033025;28;20479;-84
2022/04/21 05:06:36;;;;;;;1.77;1.33;;;5.30;99.90;;;;;;5032797;28;20473;-86
2022/04/21 05:09:04;;;;;;;0.30;0.30;;;5.30;99.90;;;;;;5032975;28;20968;-85
2022/04/21 05:11:33;;;;;;;0.40;0.40;;;5.30;99.90;;;;;;5032940;28;20462;-85
2022/04/21 05:14:00;;;;;;;0.87;0.60;;;5.40;99.90;;;;;;5032745;28;20530;-84
2022/04/21 05:16:27;;;;;;;0.50;0.30;;;5.40;99.90;;;;;;5032634;28;20804;-85
2022/04/21 05:18:55;;;;;;;0.70;0.70;;;5.50;99.90;;;;;;5032777;28;20462;-86
2022/04/21 05:21:22;;;;;;;0.80;0.67;;;5.50;99.90;;;;;;5032525;28;20982;-86
2022/04/21 05:23:51;;;;;;;2.87;0.50;;;5.60;99.90;;;;;;5032524;28;20960;-84
2022/04/21 05:26:18;;;;;;;0.70;0.50;;;5.70;99.90;;;;;;5032869;28;20879;-85
2022/04/21 05:28:46;;;;;;;0.43;0.40;;;5.80;99.90;;;;;;5032868;28;20458;-84
2022/04/21 05:31:14;;;;;;;1.43;0.80;;;5.80;99.90;;;;;;5032749;28;20466;-85
2022/04/21 05:33:41;;;;;;;0.40;0.30;;;5.90;99.90;;;;;;5032757;28;20438;-84
2022/04/21 05:36:09;;;;;;;0.80;0.43;;;6.00;99.90;;;;;;5032787;28;20451;-84
2022/04/21 05:38:37;;;;;;;0.97;0.80;;;6.00;99.90;;;;;;5032517;28;20930;-85
2022/04/21 05:41:05;;;;;;;0.40;0.30;;;6.10;99.90;;;;;;5032416;28;20462;-85
2022/04/21 05:43:40;;;;;;;2.40;0.83;;;6.20;99.90;;;;;;5032852;28;20455;-84
2022/04/21 05:46:10;;;;;;;1.90;0.60;;;6.30;99.90;;;;;;5032617;28;20486;-85
2022/04/21 05:48:37;;;;;;;0.63;0.50;;;6.50;99.90;;;;;;5032616;28;20454;-84
2022/04/21 05:51:05;;;;;;;0.30;0.30;;;6.60;99.90;;;;;;5032534;28;20471;-84
2022/04/21 05:53:36;;;;;;;0.90;0.60;;;6.80;99.90;;;;;;5032467;28;20439;-85
2022/04/21 05:56:05;;;;;;;0.80;0.80;;;7.00;99.90;;;;;;5032910;28;20439;-84
2022/04/21 05:58:32;;;;;;;0.43;0.43;;;7.20;99.90;;;;;;5032252;28;21032;-84
2022/04/21 06:01:00;;;;;;;0.60;0.50;;;7.40;99.90;;;;;;5032502;28;20455;-85
2022/04/21 06:03:29;;;;;;;0.60;0.53;;;7.70;99.90;;;;;;5032429;28;20457;-85
2022/04/21 06:05:55;;;;;;;1.17;0.50;;;7.90;99.90;;;;;;5032478;28;20576;-84
2022/04/21 06:08:22;;;;;;;0.60;0.60;;;8.20;99.90;;;;;;5032149;28;20483;-81
2022/04/21 06:10:49;;;;;;;0.97;0.60;;;8.50;99.90;;;;;;5032702;28;20442;-81
2022/04/21 06:13:16;;;;;;;1.03;0.60;;;8.80;99.90;;;;;;5035251;28;20434;-81
2022/04/21 06:15:43;;;;;;;1.00;0.93;;;9.00;99.90;;;;;;5035772;28;20493;-82
2022/04/21 06:18:10;;;;;;;3.33;0.60;;;9.30;99.90;;;;;;5035961;28;20509;-81
2022/04/21 06:20:40;;;;;;;5.77;1.03;;;9.60;99.90;;;;;;5036704;28;20442;-81
2022/04/21 06:23:07;;;;;;;1.30;0.70;;;9.70;99.90;;;;;;5035689;28;21017;-81
2022/04/21 06:25:34;;;;;;;0.80;0.70;;;9.90;99.90;;;;;;5035766;28;20470;-79
2022/04/21 06:28:00;;;;;;;0.80;0.53;;;10.10;99.90;;;;;;5035776;28;20447;-81
2022/04/21 06:30:27;;;;;;;1.70;0.83;;;10.20;99.90;;;;;;5035432;28;20938;-81
2022/04/21 06:32:54;;;;;;;2.03;1.83;;;10.50;99.90;;;;;;5035543;28;20466;-82
2022/04/21 06:35:21;;;;;;;1.30;1.20;;;11.00;99.90;;;;;;5035631;28;20431;-81
2022/04/21 06:37:49;;;;;;;1.43;1.33;;;11.40;99.90;;;;;;5035569;28;20509;-81
2022/04/21 06:40:16;;;;;;;0.50;0.50;;;11.90;99.90;;;;;;5035520;28;20451;-81
2022/04/21 06:42:43;;;;;;;1.80;1.40;;;12.50;99.90;;;;;;5035383;28;20479;-81
2022/04/21 06:48:04;;;;;;;0.67;0.67;;;13.60;94.90;;;;;;5035209;28;20550;-79
2022/04/21 06:50:32;;;;;;;2.53;1.87;;;13.90;93.50;;;;;;5035365;28;20434;-79
2022/04/21 06:53:01;;;;;;;2.20;1.40;;;14.40;93.00;;;;;;5035150;28;20467;-79
2022/04/21 06:55:28;;;;;;;2.90;1.40;;;14.80;91.50;;;;;;5035272;28;20454;-78
2022/04/21 06:57:55;;;;;;;1.37;1.10;;;15.30;89.80;;;;;;5035206;28;20446;-78
2022/04/21 07:00:26;;;;;;;2.20;2.00;;;15.90;83.80;;;;;;5034897;28;20443;-78
2022/04/21 07:02:54;;;;;;;2.60;2.07;;;16.70;77.30;;;;;;5035020;28;20536;-79
2022/04/21 07:05:22;;;;;;;2.90;1.47;;;17.30;72.20;;;;;;5034950;28;20474;-79
2022/04/21 07:07:49;;;;;;;1.63;1.53;;;17.80;66.60;;;;;;5034776;28;20930;-78
2022/04/21 07:10:18;;;;;;;2.80;1.40;;;17.90;65.20;;;;;;5034897;28;20446;-79
2022/04/21 07:12:45;;;;;;;1.90;1.47;;;18.50;63.00;;;;;;5034549;28;20486;-79
2022/04/21 07:15:12;;;;;;;3.80;2.20;;;18.80;59.50;;;;;;5034988;28;20457;-78
2022/04/21 07:17:40;;;;;;;1.50;1.40;;;19.00;59.40;;;;;;5034506;28;20963;-79
2022/04/21 07:20:08;;;;;;;1.80;1.70;;;19.30;58.40;;;;;;5034466;28;20449;-79
2022/04/21 07:22:36;;;;;;;1.73;1.63;;;19.90;56.50;;;;;;5034047;28;21024;-79
2022/04/21 07:25:05;;;;;;;1.67;1.57;;;20.60;54.40;;;;;;5034629;28;20227;-79
2022/04/21 07:27:33;;;;;;;2.53;2.07;;;21.10;52.40;;;;;;5034595;28;20612;-79
2022/04/21 07:30:01;;;;;;;3.47;1.77;;;21.50;52.80;;;;;;5034535;28;20214;-79
2022/04/21 07:32:28;;;;;;;2.97;2.17;;;22.40;49.60;;;;;;5034835;28;20285;-79
2022/04/21 07:34:55;;;;;;;2.92;2.22;;;22.90;47.00;;;;;;5034148;28;20663;-79
2022/04/21 07:37:22;;;;;;;2.05;1.88;;;22.80;47.10;;;;;;5034398;28;20208;-79
2022/04/21 07:39:48;;;;;;;3.00;2.38;;;23.30;47.10;;;;;;5034084;28;20199;-79
2022/04/21 07:42:15;;;;;;;3.60;2.25;;;23.80;45.80;;;;;;5033984;28;20211;-80
2022/04/21 07:44:43;;;;;;;2.92;1.60;;;24.10;44.50;;;;;;5034182;28;20585;-79
2022/04/21 07:47:10;;;;;;;3.10;2.35;;;24.40;42.80;;;;;;5034340;28;20234;-79
2022/04/21 07:49:46;;;;;;;4.00;2.15;;;24.10;42.70;;;;;;5034226;28;20207;-79
2022/04/21 07:55:06;;;;;;;1.90;1.60;;;23.30;44.10;;;;;;5034436;28;20187;-80
2022/04/21 07:57:33;;;;;;;2.42;1.80;;;23.30;43.10;;;;;;5033974;28;20534;-80
2022/04/21 08:00:01;;;;;;;5.43;2.17;;;23.30;42.50;;;;;;5034243;28;20207;-80
2022/04/21 08:02:28;;;;;;;1.92;1.77;;;22.90;43.20;;;;;;5033515;28;20229;-80
2022/04/21 08:04:54;;;;;;;3.15;2.05;;;23.30;42.90;;;;;;5033814;28;20215;-80
2022/04/21 08:07:21;;;;;;;4.65;2.83;;;23.70;42.00;;;;;;5033578;28;20235;-81
2022/04/21 08:09:48;;;;;;;3.30;2.65;;;24.30;41.90;;;;;;5033797;28;20210;-80
2022/04/21 08:12:15;;;;;;;6.15;3.03;;;24.70;41.20;;;;;;5033732;28;20227;-81
2022/04/21 08:14:42;;;;;;;2.17;1.95;;;25.20;41.30;;;;;;5033726;28;20204;-80
2022/04/21 08:17:10;;;;;;;4.18;2.38;;;25.40;40.00;;;;;;5033791;28;20199;-80
2022/04/21 08:19:37;;;;;;;2.97;2.20;;;25.70;39.20;;;;;;5033685;28;20571;-80
2022/04/21 08:22:04;;;;;;;2.65;2.00;;;26.00;39.10;;;;;;5033366;28;20219;-81
2022/04/21 08:32:45;;;;;;;1.90;1.73;;;25.40;37.40;;;;;;5033556;28;20250;-79
2022/04/21 08:35:13;;;;;;;2.00;1.83;;;24.60;38.30;;;;;;5032644;28;20234;-81
2022/04/21 08:37:40;;;;;;;2.78;1.98;;;24.00;38.50;;;;;;5033717;28;20290;-79
2022/04/21 08:40:08;;;;;;;2.42;2.22;;;23.70;39.60;;;;;;5033452;28;20199;-78
2022/04/21 08:42:38;;;;;;;2.47;1.98;;;23.40;39.70;;;;;;5033141;28;20227;-79
2022/04/21 08:45:05;;;;;;;2.95;1.60;;;22.80;40.60;;;;;;5033013;28;20690;-81
2022/04/21 08:47:33;;;;;;;2.87;2.27;;;22.10;41.70;;;;;;5033289;28;20191;-79
2022/04/21 08:50:05;;;;;;;1.67;1.57;;;21.70;43.00;;;;;;5033196;28;20203;-78
2022/04/21 08:52:33;;;;;;;2.37;2.17;;;21.20;43.00;;;;;;5033517;28;20544;-78
2022/04/21 08:55:00;;;;;;;2.50;1.97;;;20.50;44.10;;;;;;5032937;28;20526;-78
2022/04/21 08:57:29;;;;;;;2.67;1.97;;;19.70;45.10;;;;;;5033051;28;20462;-79
2022/04/21 08:59:56;;;;;;;2.30;1.73;;;19.60;46.20;;;;;;5032865;28;20898;-79
2022/04/21 09:02:33;;;;;;;2.63;1.30;;;20.10;46.50;;;;;;5032749;28;20976;-79
2022/04/21 09:05:00;;;;;;;2.93;1.77;;;20.20;46.20;;;;;;5033146;28;20416;-79
2022/04/21 09:07:28;;;;;;;5.97;1.90;;;20.60;45.60;;;;;;5033159;28;20486;-79
2022/04/21 09:10:05;;;;;;;3.40;2.07;;;20.90;45.20;;;;;;5033014;28;20442;-79
2022/04/21 09:12:33;;;;;;;4.03;2.70;;;21.10;45.30;;;;;;5033027;28;20493;-79
2022/04/21 09:15:06;;;;;;;3.40;2.20;;;21.20;45.00;;;;;;5032631;28;20959;-78
2022/04/21 09:17:38;;;;;;;3.60;2.03;;;21.40;45.80;;;;;;5033000;28;20488;-77
2022/04/21 09:20:06;;;;;;;2.00;1.80;;;21.70;44.70;;;;;;5032949;28;20438;-78
2022/04/21 09:22:34;;;;;;;3.60;2.10;;;21.20;44.30;;;;;;5032885;28;20474;-78
2022/04/21 09:25:02;;;;;;;2.90;2.53;;;21.20;45.40;;;;;;5032911;28;20430;-79
2022/04/21 09:27:44;;;;;;;4.73;2.00;;;21.40;44.60;;;;;;5032860;28;20457;-78
2022/04/21 09:30:13;;;;;;;2.23;2.03;;;21.20;43.70;;;;;;5030873;28;20457;-81
2022/04/21 09:32:42;;;;;;;1.57;1.43;;;21.00;44.60;;;;;;5032764;28;20511;-79
2022/04/21 09:35:10;;;;;;;2.60;1.90;;;20.90;44.50;;;;;;5032999;28;20430;-79
2022/04/21 09:37:49;;;;;;;5.47;2.10;;;21.00;45.90;;;;;;5032392;28;20503;-78
2022/04/21 09:40:17;;;;;;;3.63;1.90;;;21.30;45.30;;;;;;5032778;28;20430;-79
2022/04/21 09:42:52;;;;;;;3.60;2.20;;;21.60;44.20;;;;;;5032389;28;21043;-78
2022/04/21 09:48:11;;;;;;;2.10;1.77;;;21.90;44.20;;;;;;5036844;28;20453;-81
2022/04/21 09:50:41;;;;;;;3.23;1.43;;;22.10;44.60;;;;;;5036566;28;20191;-79
2022/04/21 09:53:09;;;;;;;3.67;2.20;;;21.90;44.60;;;;;;5036344;28;20520;-79
2022/04/21 09:55:36;;;;;;;3.63;1.90;;;21.60;45.50;;;;;;5036312;28;20851;-79
2022/04/21 09:58:07;;;;;;;2.60;2.03;;;21.00;44.80;;;;;;5036613;28;20446;-79
2022/04/21 10:00:35;;;;;;;3.77;1.90;;;20.70;45.10;;;;;;5036213;28;20454;-78
2022/04/21 10:03:04;;;;;;;2.40;1.80;;;20.40;47.00;;;;;;5035938;28;20457;-78
2022/04/21 10:05:32;;;;;;;1.90;1.53;;;20.30;46.70;;;;;;5035960;28;20792;-78
2022/04/21 10:08:01;;;;;;;2.13;1.93;;;20.50;47.50;;;;;;5035856;28;20465;-78
2022/04/21 10:10:31;;;;;;;2.63;1.90;;;20.60;48.20;;;;;;5035856;28;20430;-79
2022/04/21 10:12:59;;;;;;;3.00;1.57;;;20.70;46.90;;;;;;5036270;28;20992;-79
2022/04/21 10:15:28;;;;;;;4.80;1.90;;;20.60;47.10;;;;;;5035943;28;20521;-78
2022/04/21 10:17:55;;;;;;;3.17;2.00;;;20.80;48.20;;;;;;5035657;28;20430;-78
2022/04/21 10:20:23;;;;;;;2.27;1.40;;;21.00;48.00;;;;;;5035806;28;20454;-79
2022/04/21 10:22:51;;;;;;;2.37;1.60;;;21.00;47.50;;;;;;5035783;28;20470;-79
2022/04/21 10:25:19;;;;;;;2.30;1.40;;;21.20;46.20;;;;;;5035848;28;20450;-78
2022/04/21 10:27:49;;;;;;;2.17;1.97;;;21.10;46.30;;;;;;5035825;28;20450;-79
2022/04/21 10:30:21;;;;;;;1.73;1.60;;;20.80;45.10;;;;;;5035789;28;20497;-79
2022/04/21 10:32:53;;;;;;;2.67;1.73;;;20.40;45.60;;;;;;5035672;28;20474;-80
2022/04/21 10:35:41;;;;;;;1.37;0.90;;;20.20;46.70;;;;;;5035435;28;20454;-80
2022/04/21 10:38:22;;;;;;;1.90;1.47;;;20.50;47.40;;;;;;5035551;28;20461;-80
2022/04/21 10:41:06;;;;;;;3.53;1.90;;;21.00;45.50;;;;;;5035367;28;20961;-80
2022/04/21 10:44:05;;;;;;;5.60;1.60;;;21.50;45.80;;;;;;5035582;28;20431;-80
2022/04/21 10:46:32;;;;;;;1.30;1.00;;;22.10;44.50;;;;;;5036193;28;20486;-80
2022/04/21 10:48:59;;;;;;;2.43;1.60;;;22.50;44.20;;;;;;5035414;28;20454;-78
2022/04/21 10:58:49;;;;;;;2.95;2.75;;;23.40;43.50;;;;;;4973669;28;20615;-80
2022/04/21 11:01:19;;;;;;;1.67;1.58;;;23.50;43.70;;;;;;5035155;28;20285;-80
2022/04/21 11:04:05;;;;;;;3.35;1.85;;;23.10;44.00;;;;;;5035157;28;20567;-80
2022/04/21 11:06:40;;;;;;;1.27;1.17;;;22.60;44.30;;;;;;5034901;28;20235;-80
2022/04/21 11:09:08;;;;;;;3.75;1.38;;;22.30;44.30;;;;;;5035083;28;20249;-80
2022/04/21 11:11:45;;;;;;;1.40;1.30;;;21.80;45.20;;;;;;5034666;28;20729;-80
2022/04/21 11:14:12;;;;;;;3.27;1.90;;;21.30;45.80;;;;;;5034944;28;20449;-78
2022/04/21 11:16:49;;;;;;;3.60;1.70;;;20.80;46.20;;;;;;5034563;28;20488;-78
2022/04/21 11:19:40;;;;;;;2.37;1.40;;;20.20;47.00;;;;;;5035232;28;20742;-78
2022/04/21 11:22:09;;;;;;;2.10;1.90;;;19.90;48.20;;;;;;5034811;28;20478;-78
2022/04/21 11:25:02;;;;;;;2.63;1.60;;;19.90;49.80;;;;;;5034702;28;20450;-78
2022/04/21 11:27:29;;;;;;;1.30;1.20;;;20.00;49.60;;;;;;5034757;28;20442;-78
2022/04/21 11:30:01;;;;;;;2.90;1.60;;;20.00;49.40;;;;;;5034939;28;20450;-81
2022/04/21 11:32:29;;;;;;;1.67;1.30;;;20.10;48.70;;;;;;5034592;28;20499;-81
2022/04/21 11:34:59;;;;;;;2.40;1.53;;;19.90;48.80;;;;;;5034554;28;20443;-81
2022/04/21 11:37:44;;;;;;;1.97;1.20;;;19.70;48.30;;;;;;5034658;28;20537;-81
2022/04/21 11:40:28;;;;;;;1.93;0.87;;;19.30;49.00;;;;;;5035111;28;20818;-81
2022/04/21 11:42:56;;;;;;;1.17;1.00;;;19.00;50.40;;;;;;5034335;28;20811;-81
2022/04/21 11:45:24;;;;;;;3.03;1.17;;;18.50;49.70;;;;;;5034514;28;20455;-81
2022/04/21 11:47:53;;;;;;;0.83;0.80;;;18.20;50.60;;;;;;5034036;28;20806;-82
2022/04/21 11:50:21;;;;;;;1.23;1.17;;;18.10;51.00;;;;;;5034344;28;20455;-81
2022/04/21 11:52:52;;;;;;;0.67;0.57;;;18.00;51.70;;;;;;5033829;28;20812;-81
2022/04/21 11:55:20;;;;;;;1.30;1.00;;;18.10;52.00;;;;;;5034131;28;20447;-82
2022/04/21 11:57:47;;;;;;;1.50;0.83;;;18.00;52.00;;;;;;5034151;28;20483;-81
2022/04/21 12:00:16;;;;;;;2.40;0.90;;;17.80;52.50;;;;;;5033806;28;20447;-82
2022/04/21 12:08:15;;;;;;;1.27;1.17;;;17.40;52.70;;;;;;5033889;28;20617;-80
2022/04/21 12:10:42;;;;;;;2.20;1.30;;;17.30;53.30;;;;;;5033861;28;20474;-81
2022/04/21 12:13:10;;;;;;;1.73;1.10;;;17.10;54.60;;;;;;5033789;28;21014;-80
2022/04/21 12:15:39;;;;;;;1.70;0.97;;;17.00;54.40;;;;;;5033743;28;20443;-80
2022/04/21 12:18:07;;;;;;;2.30;1.20;;;17.10;54.40;;;;;;5033557;28;20475;-81
2022/04/21 12:20:35;;;;;;;1.83;0.93;;;17.20;54.50;;;;;;5033412;28;20430;-80
2022/04/21 12:23:02;;;;;;;1.73;1.40;;;17.30;54.40;;;;;;5033535;28;20471;-80
2022/04/21 12:25:33;;;;;;;1.07;0.97;;;17.20;54.30;;;;;;5033615;28;20485;-81
2022/04/21 12:28:03;;;;;;;1.20;0.90;;;17.00;54.60;;;;;;5033549;28;20450;-81
2022/04/21 12:30:30;;;;;;;0.60;0.60;;;17.00;55.40;;;;;;5033577;28;20462;-79
2022/04/21 12:32:57;;;;;;;3.23;1.53;;;17.00;55.40;;;;;;5033216;28;20869;-79
2022/04/21 12:35:45;;;;;;;2.10;1.13;;;17.00;55.90;;;;;;5033318;28;20942;-81
2022/04/21 12:40:59;;;;;;;0.73;0.73;;;17.30;55.80;;;;;;5033482;28;20487;-79
2022/04/21 12:43:28;;;;;;;1.03;0.60;;;17.30;55.40;;;;;;5033029;28;20940;-80
2022/04/21 12:45:55;;;;;;;0.80;0.50;;;17.30;55.10;;;;;;5033413;28;20446;-80
2022/04/21 12:48:23;;;;;;;0.50;0.50;;;17.30;55.00;;;;;;5033077;28;20431;-81
2022/04/21 12:50:51;;;;;;;1.07;0.70;;;17.20;54.60;;;;;;5032993;28;20438;-81
2022/04/21 12:53:29;;;;;;;1.33;0.60;;;17.20;55.40;;;;;;5032992;28;20485;-81
2022/04/21 12:55:57;;;;;;;1.57;0.53;;;17.10;55.20;;;;;;5033197;28;20450;-79
2022/04/21 12:58:32;;;;;;;0.50;0.50;;;17.10;55.40;;;;;;5033125;28;20497;-80
2022/04/21 13:01:01;;;;;;;1.10;1.10;;;17.10;55.20;;;;;;5033046;28;20493;-80
2022/04/21 13:03:28;;;;;;;0.57;0.57;;;17.20;55.40;;;;;;5032895;28;20431;-80
2022/04/21 13:05:57;;;;;;;0.40;0.40;;;17.20;55.10;;;;;;5032799;28;20462;-83
2022/04/21 13:08:26;;;;;;;0.80;0.40;;;17.20;54.90;;;;;;5032903;28;20497;-80
2022/04/21 13:10:54;;;;;;;0.77;0.60;;;17.10;55.30;;;;;;5032977;28;20781;-79
2022/04/21 13:13:21;;;;;;;0.53;0.53;;;16.80;55.40;;;;;;5032684;28;20449;-79
2022/04/21 13:15:48;;;;;;;1.00;0.60;;;16.60;55.80;;;;;;5032948;28;20500;-80
2022/04/21 13:18:16;;;;;;;1.17;0.83;;;16.40;55.50;;;;;;5032904;28;20588;-80
2022/04/21 13:23:29;;;;;;;0.40;0.40;;;16.10;56.70;;;;;;5037133;28;20783;-80
2022/04/21 13:25:57;;;;;;;0.30;0.30;;;16.20;55.80;;;;;;5037032;28;20415;-80
2022/04/21 13:28:23;;;;;;;0.40;0.30;;;16.20;55.50;;;;;;5036693;28;20453;-80
2022/04/21 13:33:21;;;;;;;0.40;0.30;;;16.10;55.50;;;;;;5036784;28;20482;-80
2022/04/21 13:33:37;;;;;;;0.40;0.40;;;16.10;56.00;;;;;;5036417;28;20455;-79
2022/04/21 13:36:06;;;;;;;1.07;0.60;;;16.10;56.00;;;;;;5036536;28;20915;-80
2022/04/21 13:38:34;;;;;;;0.37;0.30;;;16.10;55.60;;;;;;5036768;28;20490;-80
2022/04/21 13:41:01;;;;;;;0.30;0.30;;;16.20;55.60;;;;;;5036739;28;20442;-81
2022/04/21 13:43:28;;;;;;;0.70;0.70;;;16.30;55.60;;;;;;5036667;28;20456;-80
2022/04/21 13:45:57;;;;;;;0.50;0.50;;;16.30;55.00;;;;;;5036830;28;20442;-80
2022/04/21 13:48:24;;;;;;;0.70;0.50;;;16.40;54.70;;;;;;5036296;28;20496;-80
2022/04/21 13:50:51;;;;;;;0.67;0.67;;;16.40;55.30;;;;;;5036416;28;20501;-79
2022/04/21 13:53:17;;;;;;;0.53;0.40;;;16.30;54.70;;;;;;5037128;28;20458;-79
2022/04/21 13:55:46;;;;;;;0.90;0.70;;;16.20;55.10;;;;;;5036384;28;20454;-79